Time;durP1;ratioP1;P1;durP2;ratioP2;P2;SDS_P1;SDS_P2;PMS_P1;PMS_P2;Temp;Humidity;BMP_temperature;BMP_pressure;BME280_temperature;BME280_humidity;BME280_pressure;Samples;Min_cycle;Max_cycle;Signal;HPM_P1;HPM_P2
2021/01/28 00:01:46;;;;;;;62.97;44.22;;;;;;;;;;5073623;28;20193;-85
2021/01/28 00:04:13;;;;;;;51.85;41.38;;;;;;;;;;5073524;28;20186;-85
2021/01/28 00:06:41;;;;;;;63.08;42.53;;;;;;;;;;5076015;28;20193;-85
2021/01/28 00:09:07;;;;;;;62.08;43.15;;;;;;;;;;5076990;28;20237;-85
2021/01/28 00:11:34;;;;;;;53.83;41.13;;;;;;;;;;5077308;28;20234;-85
2021/01/28 00:14:01;;;;;;;58.58;43.22;;;;;;;;;;5077431;28;20192;-85
2021/01/28 00:16:28;;;;;;;70.13;45.30;;;;;;;;;;5077340;28;20228;-84
2021/01/28 00:18:55;;;;;;;53.33;41.50;;;;;;;;;;5077485;28;20250;-85
2021/01/28 00:21:22;;;;;;;60.28;42.10;;;;;;;;;;5077227;28;20196;-85
2021/01/28 00:23:50;;;;;;;74.05;47.22;;;;;;;;;;5076974;28;20273;-85
2021/01/28 00:26:17;;;;;;;68.80;44.42;;;;;;;;;;5077248;28;20197;-85
2021/01/28 00:28:44;;;;;;;71.40;46.65;;;;;;;;;;5076911;28;20527;-85
2021/01/28 00:31:11;;;;;;;62.28;44.60;;;;;;;;;;5059404;28;20201;-85
2021/01/28 00:33:38;;;;;;;68.30;47.58;;;;;;;;;;5076703;28;20243;-85
2021/01/28 00:36:07;;;;;;;71.47;49.88;;;;;;;;;;5077051;28;20593;-85
2021/01/28 00:38:34;;;;;;;63.95;45.35;;;;;;;;;;5076824;28;20203;-85
2021/01/28 00:41:02;;;;;;;59.85;43.63;;;;;;;;;;5076578;28;20188;-85
2021/01/28 00:43:29;;;;;;;63.15;44.10;;;;;;;;;;5076931;28;20189;-85
2021/01/28 00:45:57;;;;;;;67.57;49.65;;;;;;;;;;5076764;28;20223;-85
2021/01/28 00:48:24;;;;;;;70.63;48.50;;;;;;;;;;5076656;28;20684;-85
2021/01/28 00:50:51;;;;;;;63.25;44.90;;;;;;;;;;5076611;28;20192;-84
2021/01/28 00:53:18;;;;;;;68.72;49.33;;;;;;;;;;5077166;28;20201;-85
2021/01/28 00:55:45;;;;;;;59.97;46.22;;;;;;;;;;5076240;28;20204;-85
2021/01/28 00:58:14;;;;;;;60.92;44.45;;;;;;;;;;5076289;28;20214;-85
2021/01/28 01:00:42;;;;;;;61.13;43.88;;;;;;;;;;5076721;28;20573;-85
2021/01/28 01:03:10;;;;;;;68.32;43.40;;;;;;;;;;5076327;28;20200;-85
2021/01/28 01:05:38;;;;;;;65.53;45.25;;;;;;;;;;5076350;28;20200;-85
2021/01/28 01:08:06;;;;;;;70.10;46.50;;;;;;;;;;5076210;28;20293;-84
2021/01/28 01:10:35;;;;;;;59.78;45.70;;;;;;;;;;5076395;28;20532;-85
2021/01/28 01:13:02;;;;;;;52.58;40.88;;;;;;;;;;5076142;28;20189;-85
2021/01/28 01:15:30;;;;;;;61.72;45.70;;;;;;;;;;5076272;28;20197;-84
2021/01/28 01:17:57;;;;;;;54.65;43.05;;;;;;;;;;5076234;28;20215;-84
2021/01/28 01:20:24;;;;;;;58.80;43.13;;;;;;;;;;5075945;28;20188;-85
2021/01/28 01:22:51;;;;;;;58.85;46.88;;;;;;;;;;5058462;28;20195;-85
2021/01/28 01:25:19;;;;;;;53.92;41.65;;;;;;;;;;5076214;28;20186;-85
2021/01/28 01:27:46;;;;;;;56.17;41.53;;;;;;;;;;5076037;28;20187;-85
2021/01/28 01:30:14;;;;;;;63.50;42.40;;;;;;;;;;5075836;28;20189;-85
2021/01/28 01:32:41;;;;;;;49.40;43.05;;;;;;;;;;5057881;28;20201;-85
2021/01/28 01:35:09;;;;;;;52.42;42.58;;;;;;;;;;5075919;28;20200;-85
2021/01/28 01:37:36;;;;;;;33.35;30.05;;;;;;;;;;5075817;28;20212;-84
2021/01/28 01:40:04;;;;;;;59.60;41.28;;;;;;;;;;5075786;28;20214;-85
2021/01/28 01:42:31;;;;;;;66.55;44.83;;;;;;;;;;5075931;28;20205;-85
2021/01/28 01:44:58;;;;;;;52.50;40.70;;;;;;;;;;5057771;28;20249;-85
2021/01/28 01:47:37;;;;;;;72.03;46.67;;;;;;;;;;5075520;28;20224;-84
2021/01/28 01:50:08;;;;;;;60.90;45.13;;;;;;;;;;5075718;28;20192;-85
2021/01/28 01:52:36;;;;;;;65.80;45.55;;;;;;;;;;5057876;28;20287;-85
2021/01/28 01:55:03;;;;;;;61.35;43.60;;;;;;;;;;5075157;28;20205;-85
2021/01/28 01:57:32;;;;;;;45.38;36.80;;;;;;;;;;5075501;28;20219;-85
2021/01/28 02:00:02;;;;;;;63.05;44.47;;;;;;;;;;5076217;28;20209;-85
2021/01/28 02:02:32;;;;;;;50.60;39.03;;;;;;;;;;5075768;28;20196;-84
2021/01/28 02:05:00;;;;;;;57.58;41.65;;;;;;;;;;5075215;28;20235;-85
2021/01/28 02:07:29;;;;;;;70.88;46.08;;;;;;;;;;5075052;28;20236;-85
2021/01/28 02:09:56;;;;;;;71.25;45.33;;;;;;;;;;5076065;28;20205;-85
2021/01/28 02:12:22;;;;;;;68.72;48.28;;;;;;;;;;5075227;28;20190;-85
2021/01/28 02:14:51;;;;;;;70.07;46.55;;;;;;;;;;5075127;28;20197;-84
2021/01/28 02:17:19;;;;;;;67.28;44.67;;;;;;;;;;5075041;28;20214;-85
2021/01/28 02:19:56;;;;;;;82.95;47.95;;;;;;;;;;5075241;28;20193;-85
2021/01/28 02:22:29;;;;;;;73.22;47.78;;;;;;;;;;5075000;28;20188;-85
2021/01/28 02:25:03;;;;;;;84.15;47.38;;;;;;;;;;5074691;28;20549;-85
2021/01/28 02:27:31;;;;;;;63.72;43.00;;;;;;;;;;5074730;28;20210;-85
2021/01/28 02:29:57;;;;;;;96.38;51.03;;;;;;;;;;5074221;28;20190;-85
2021/01/28 02:32:24;;;;;;;72.93;47.53;;;;;;;;;;5074856;28;20220;-85
2021/01/28 02:34:51;;;;;;;82.43;47.38;;;;;;;;;;5074730;28;20584;-85
2021/01/28 02:37:20;;;;;;;67.63;43.15;;;;;;;;;;5074751;28;20218;-85
2021/01/28 02:39:47;;;;;;;59.58;38.78;;;;;;;;;;5074401;28;20191;-85
2021/01/28 02:42:16;;;;;;;67.93;44.40;;;;;;;;;;5074727;28;20193;-85
2021/01/28 02:44:44;;;;;;;67.72;41.60;;;;;;;;;;5074344;28;20205;-84
2021/01/28 02:47:11;;;;;;;67.07;43.67;;;;;;;;;;5074233;28;20211;-85
2021/01/28 02:49:38;;;;;;;60.78;43.30;;;;;;;;;;5074399;28;20557;-85
2021/01/28 02:52:05;;;;;;;65.90;44.85;;;;;;;;;;5074440;28;20205;-85
2021/01/28 02:54:38;;;;;;;82.22;44.63;;;;;;;;;;5074559;28;20552;-85
2021/01/28 02:57:05;;;;;;;63.30;41.95;;;;;;;;;;5073973;28;20217;-84
2021/01/28 02:59:32;;;;;;;56.25;40.17;;;;;;;;;;5074188;28;20197;-84
2021/01/28 03:02:03;;;;;;;52.22;40.70;;;;;;;;;;5074430;28;20189;-84
2021/01/28 03:04:29;;;;;;;70.88;44.33;;;;;;;;;;5073925;28;20612;-84
2021/01/28 03:06:56;;;;;;;77.32;46.20;;;;;;;;;;5073764;28;20689;-84
2021/01/28 03:09:23;;;;;;;68.63;42.90;;;;;;;;;;5074348;28;20650;-84
2021/01/28 03:11:50;;;;;;;84.80;46.53;;;;;;;;;;5074312;28;20532;-85
2021/01/28 03:14:17;;;;;;;80.15;47.15;;;;;;;;;;5073848;28;20217;-85
2021/01/28 03:16:44;;;;;;;68.07;44.28;;;;;;;;;;5073845;28;20214;-85
2021/01/28 03:19:11;;;;;;;70.63;45.75;;;;;;;;;;5073995;28;20210;-85
2021/01/28 03:21:38;;;;;;;72.10;43.10;;;;;;;;;;5074021;28;20207;-85
2021/01/28 03:24:06;;;;;;;74.20;43.97;;;;;;;;;;5073723;28;20211;-85
2021/01/28 03:26:33;;;;;;;62.28;42.63;;;;;;;;;;5074050;28;20201;-85
2021/01/28 03:29:00;;;;;;;69.35;43.35;;;;;;;;;;5056441;28;20211;-84
2021/01/28 03:31:27;;;;;;;86.18;46.22;;;;;;;;;;5055927;28;20273;-84
2021/01/28 03:33:54;;;;;;;90.70;47.33;;;;;;;;;;5073846;28;20224;-84
2021/01/28 03:36:21;;;;;;;79.32;45.83;;;;;;;;;;5074000;28;20275;-84
2021/01/28 03:38:48;;;;;;;79.25;46.80;;;;;;;;;;5073909;28;20233;-85
2021/01/28 03:41:15;;;;;;;82.35;47.70;;;;;;;;;;5075661;28;20197;-84
2021/01/28 03:43:42;;;;;;;77.95;46.55;;;;;;;;;;5078027;28;20185;-84
2021/01/28 03:46:09;;;;;;;83.45;48.85;;;;;;;;;;5077842;28;20207;-84
2021/01/28 03:48:36;;;;;;;96.60;49.72;;;;;;;;;;5078091;28;20198;-84
2021/01/28 03:51:03;;;;;;;86.40;49.15;;;;;;;;;;5077724;28;20236;-84
2021/01/28 03:53:31;;;;;;;66.90;41.15;;;;;;;;;;5077919;28;20669;-84
2021/01/28 03:55:58;;;;;;;46.55;35.38;;;;;;;;;;5059934;28;20588;-84
2021/01/28 03:58:25;;;;;;;44.50;32.33;;;;;;;;;;5078824;28;20189;-85
2021/01/28 04:00:52;;;;;;;49.30;35.97;;;;;;;;;;5077787;28;20253;-85
2021/01/28 04:03:19;;;;;;;53.03;34.75;;;;;;;;;;5077387;28;20246;-85
2021/01/28 04:05:46;;;;;;;35.20;31.27;;;;;;;;;;5077873;28;20193;-85
2021/01/28 04:08:13;;;;;;;35.17;30.83;;;;;;;;;;5077319;28;20247;-85
2021/01/28 04:10:41;;;;;;;34.13;30.42;;;;;;;;;;5077234;28;20650;-84
2021/01/28 04:13:09;;;;;;;47.55;34.33;;;;;;;;;;5077434;28;20192;-85
2021/01/28 04:15:36;;;;;;;35.60;31.73;;;;;;;;;;5077154;28;20205;-84
2021/01/28 04:18:03;;;;;;;44.15;31.98;;;;;;;;;;5077524;28;20615;-85
2021/01/28 04:20:35;;;;;;;41.55;31.00;;;;;;;;;;5059522;28;20201;-85
2021/01/28 04:23:02;;;;;;;36.80;31.58;;;;;;;;;;5077547;28;20205;-85
2021/01/28 04:25:29;;;;;;;34.75;30.88;;;;;;;;;;5077040;28;20201;-84
2021/01/28 04:27:58;;;;;;;46.38;32.80;;;;;;;;;;5077251;28;20198;-85
2021/01/28 04:30:27;;;;;;;36.10;29.98;;;;;;;;;;5077198;28;20296;-85
2021/01/28 04:32:54;;;;;;;41.63;30.38;;;;;;;;;;5076764;28;20232;-85
2021/01/28 04:35:21;;;;;;;37.58;30.10;;;;;;;;;;5077096;28;20194;-85
2021/01/28 04:37:48;;;;;;;33.45;29.88;;;;;;;;;;5077049;28;20317;-85
2021/01/28 04:40:18;;;;;;;31.10;27.55;;;;;;;;;;5076664;28;20204;-85
2021/01/28 04:42:46;;;;;;;36.42;28.70;;;;;;;;;;5076859;28;20552;-85
2021/01/28 04:45:15;;;;;;;35.78;27.60;;;;;;;;;;5076589;28;20201;-84
2021/01/28 04:47:46;;;;;;;30.73;27.15;;;;;;;;;;5075985;28;20212;-84
2021/01/28 04:50:16;;;;;;;28.48;25.95;;;;;;;;;;5076783;28;20188;-85
2021/01/28 04:52:43;;;;;;;29.05;26.50;;;;;;;;;;5058570;28;20198;-84
2021/01/28 04:55:12;;;;;;;28.33;25.73;;;;;;;;;;5076703;28;20188;-84
2021/01/28 04:57:39;;;;;;;29.83;26.70;;;;;;;;;;5076543;28;20221;-84
2021/01/28 05:00:06;;;;;;;29.80;26.88;;;;;;;;;;5076403;28;20205;-85
2021/01/28 05:02:34;;;;;;;29.35;26.85;;;;;;;;;;5076217;28;20265;-84
2021/01/28 05:05:06;;;;;;;28.83;26.23;;;;;;;;;;5076626;28;20196;-85
2021/01/28 05:07:33;;;;;;;28.45;26.05;;;;;;;;;;5076121;28;20240;-85
2021/01/28 05:10:09;;;;;;;29.60;26.50;;;;;;;;;;5076574;28;20548;-85
2021/01/28 05:12:36;;;;;;;28.73;26.08;;;;;;;;;;5076381;28;20192;-85
2021/01/28 05:15:14;;;;;;;28.20;25.30;;;;;;;;;;5076390;28;20193;-85
2021/01/28 05:17:42;;;;;;;28.50;25.70;;;;;;;;;;5076184;28;20225;-85
2021/01/28 05:20:14;;;;;;;26.98;24.35;;;;;;;;;;5076120;28;20189;-85
2021/01/28 05:22:44;;;;;;;27.85;25.38;;;;;;;;;;5058638;28;20204;-84
2021/01/28 05:25:18;;;;;;;27.38;24.80;;;;;;;;;;5076252;28;20552;-85
2021/01/28 05:27:46;;;;;;;27.45;25.10;;;;;;;;;;5076242;28;20217;-85
2021/01/28 05:30:15;;;;;;;30.73;27.42;;;;;;;;;;5076283;28;20267;-85
2021/01/28 05:32:44;;;;;;;28.40;25.58;;;;;;;;;;5075404;28;20229;-85
2021/01/28 05:35:30;;;;;;;28.30;25.15;;;;;;;;;;5076018;28;20540;-85
2021/01/28 05:38:05;;;;;;;26.90;24.38;;;;;;;;;;5075634;28;20229;-85
2021/01/28 05:40:32;;;;;;;28.52;25.38;;;;;;;;;;5075793;28;20186;-85
2021/01/28 05:43:00;;;;;;;29.85;26.70;;;;;;;;;;5075422;28;20189;-85
2021/01/28 05:45:32;;;;;;;30.13;26.42;;;;;;;;;;5075447;28;20200;-84
2021/01/28 05:48:14;;;;;;;27.50;25.35;;;;;;;;;;5075714;28;20193;-85
2021/01/28 05:50:41;;;;;;;27.77;25.35;;;;;;;;;;5075713;28;20184;-85
2021/01/28 05:53:10;;;;;;;28.55;26.25;;;;;;;;;;5075460;28;20236;-85
2021/01/28 05:55:37;;;;;;;28.45;25.75;;;;;;;;;;5075500;28;20198;-85
2021/01/28 05:58:05;;;;;;;26.42;24.25;;;;;;;;;;5075549;28;20282;-85
2021/01/28 06:00:37;;;;;;;28.25;25.85;;;;;;;;;;5075136;28;20189;-85
2021/01/28 06:03:15;;;;;;;31.08;28.38;;;;;;;;;;5056643;28;20201;-83
2021/01/28 06:05:48;;;;;;;27.05;24.83;;;;;;;;;;5075013;28;20680;-84
2021/01/28 06:08:25;;;;;;;24.95;23.05;;;;;;;;;;5074727;28;20248;-84
2021/01/28 06:11:00;;;;;;;24.88;22.88;;;;;;;;;;5075308;28;20219;-83
2021/01/28 06:13:38;;;;;;;26.20;24.20;;;;;;;;;;5074864;28;20205;-84
2021/01/28 06:16:09;;;;;;;27.33;25.23;;;;;;;;;;5074877;28;20194;-84
2021/01/28 06:18:58;;;;;;;25.67;23.77;;;;;;;;;;5074794;28;20189;-83
2021/01/28 06:21:42;;;;;;;26.60;24.58;;;;;;;;;;5074754;28;20201;-83
2021/01/28 06:24:29;;;;;;;27.83;25.63;;;;;;;;;;5074322;28;20593;-82
2021/01/28 06:27:00;;;;;;;27.40;25.15;;;;;;;;;;5056959;28;20340;-82
2021/01/28 06:29:45;;;;;;;27.63;25.55;;;;;;;;;;5074674;28;20200;-83
2021/01/28 06:32:23;;;;;;;28.58;26.10;;;;;;;;;;5067660;28;20204;-82
2021/01/28 06:35:05;;;;;;;28.88;26.48;;;;;;;;;;5074210;28;20192;-82
2021/01/28 06:37:39;;;;;;;28.80;26.60;;;;;;;;;;5073155;28;20244;-83
2021/01/28 06:40:07;;;;;;;30.65;28.20;;;;;;;;;;5074591;28;20186;-84
2021/01/28 06:42:36;;;;;;;28.50;26.15;;;;;;;;;;5074490;28;20196;-84
2021/01/28 06:45:06;;;;;;;30.27;27.50;;;;;;;;;;5074073;28;20189;-84
2021/01/28 06:47:36;;;;;;;28.45;26.30;;;;;;;;;;5074105;28;20193;-83
2021/01/28 06:50:06;;;;;;;27.85;25.58;;;;;;;;;;5074364;28;20193;-84
2021/01/28 06:52:49;;;;;;;29.77;27.10;;;;;;;;;;5056613;28;20201;-84
2021/01/28 06:55:29;;;;;;;27.77;25.42;;;;;;;;;;5074272;28;20185;-83
2021/01/28 06:58:02;;;;;;;27.65;25.33;;;;;;;;;;5074294;28;20216;-89
2021/01/28 07:00:32;;;;;;;28.10;26.02;;;;;;;;;;5074416;28;20193;-84
2021/01/28 07:03:02;;;;;;;30.50;27.83;;;;;;;;;;5074204;28;20193;-83
2021/01/28 07:05:36;;;;;;;30.38;27.92;;;;;;;;;;5056439;28;20216;-84
2021/01/28 07:08:10;;;;;;;30.10;27.70;;;;;;;;;;5073806;28;20233;-84
2021/01/28 07:10:38;;;;;;;30.13;27.38;;;;;;;;;;5073494;28;20211;-84
2021/01/28 07:13:07;;;;;;;30.17;27.50;;;;;;;;;;5073647;28;20200;-84
2021/01/28 07:15:33;;;;;;;30.05;27.70;;;;;;;;;;5073556;28;20190;-84
2021/01/28 07:18:04;;;;;;;32.03;29.55;;;;;;;;;;5074170;28;20265;-84
2021/01/28 07:20:33;;;;;;;29.33;26.80;;;;;;;;;;5056150;28;20275;-84
2021/01/28 07:23:20;;;;;;;29.40;27.30;;;;;;;;;;5073740;28;20193;-84
2021/01/28 07:25:50;;;;;;;29.80;27.55;;;;;;;;;;5074094;28;20198;-84
2021/01/28 07:28:28;;;;;;;29.65;27.25;;;;;;;;;;5073673;28;20669;-84
2021/01/28 07:31:17;;;;;;;30.15;27.85;;;;;;;;;;5073353;28;20282;-84
2021/01/28 07:33:48;;;;;;;30.45;27.95;;;;;;;;;;5073361;28;20223;-83
2021/01/28 07:36:36;;;;;;;28.92;26.77;;;;;;;;;;5074025;28;20597;-84
2021/01/28 07:39:06;;;;;;;26.20;24.60;;;;;;;;;;5073923;28;20647;-84
2021/01/28 07:41:35;;;;;;;28.58;26.77;;;;;;;;;;5073788;28;20555;-84
2021/01/28 07:44:20;;;;;;;27.27;25.58;;;;;;;;;;5073380;28;20639;-83
2021/01/28 07:46:47;;;;;;;27.90;26.00;;;;;;;;;;5073283;28;20211;-83
2021/01/28 07:49:16;;;;;;;26.23;24.58;;;;;;;;;;5073485;28;20188;-82
2021/01/28 07:51:44;;;;;;;25.48;23.85;;;;;;;;;;5073869;28;20561;-84
2021/01/28 07:54:29;;;;;;;26.60;24.73;;;;;;;;;;5073325;28;20192;-84
2021/01/28 07:56:58;;;;;;;25.98;24.38;;;;;;;;;;5073260;28;20213;-82
2021/01/28 07:59:36;;;;;;;27.45;25.50;;;;;;;;;;5073320;28;20192;-83
2021/01/28 08:02:13;;;;;;;28.00;26.20;;;;;;;;;;5073123;28;20184;-83
2021/01/28 08:04:43;;;;;;;26.70;24.75;;;;;;;;;;5073093;28;20669;-82
2021/01/28 08:07:11;;;;;;;26.90;25.05;;;;;;;;;;5072913;28;20193;-82
2021/01/28 08:09:45;;;;;;;27.23;25.40;;;;;;;;;;5055577;28;20209;-83
2021/01/28 08:12:13;;;;;;;27.95;26.15;;;;;;;;;;5073470;28;20193;-82
2021/01/28 08:14:44;;;;;;;27.33;25.45;;;;;;;;;;5072919;28;20189;-82
2021/01/28 08:17:12;;;;;;;26.65;24.85;;;;;;;;;;5073094;28;20240;-84
2021/01/28 08:19:39;;;;;;;25.70;24.00;;;;;;;;;;5073394;28;20233;-83
2021/01/28 08:22:07;;;;;;;26.17;24.48;;;;;;;;;;5073251;28;20189;-84
2021/01/28 08:24:39;;;;;;;26.05;24.15;;;;;;;;;;5073468;28;20318;-84
2021/01/28 08:27:13;;;;;;;26.55;24.33;;;;;;;;;;5074644;28;20277;-84
2021/01/28 08:29:40;;;;;;;24.83;23.05;;;;;;;;;;5077592;28;20641;-85
2021/01/28 08:32:19;;;;;;;25.33;23.73;;;;;;;;;;5076930;28;20639;-84
2021/01/28 08:34:46;;;;;;;26.38;24.60;;;;;;;;;;5076987;28;20195;-84
2021/01/28 08:37:14;;;;;;;26.90;25.05;;;;;;;;;;5077040;28;20220;-84
2021/01/28 08:39:41;;;;;;;25.73;24.15;;;;;;;;;;5076752;28;20632;-84
2021/01/28 08:42:10;;;;;;;24.10;22.60;;;;;;;;;;5076904;28;20197;-84
2021/01/28 08:44:39;;;;;;;23.20;21.80;;;;;;;;;;5076710;28;20201;-84
2021/01/28 08:47:09;;;;;;;24.42;22.83;;;;;;;;;;5076727;28;20189;-84
2021/01/28 08:49:36;;;;;;;23.45;21.95;;;;;;;;;;5076724;28;20595;-84
2021/01/28 08:52:04;;;;;;;23.65;22.13;;;;;;;;;;5076381;28;20189;-84
2021/01/28 08:54:32;;;;;;;21.95;20.63;;;;;;;;;;5076711;28;20192;-84
2021/01/28 08:57:00;;;;;;;21.88;20.48;;;;;;;;;;5076310;28;20212;-84
2021/01/28 08:59:31;;;;;;;21.55;20.25;;;;;;;;;;5076791;28;20209;-84
2021/01/28 09:02:00;;;;;;;22.50;20.65;;;;;;;;;;5058707;28;20212;-83
2021/01/28 09:04:28;;;;;;;22.65;21.25;;;;;;;;;;5076547;28;20190;-84
2021/01/28 09:06:55;;;;;;;22.65;21.25;;;;;;;;;;5076064;28;20213;-84
2021/01/28 09:09:24;;;;;;;26.45;24.45;;;;;;;;;;5075798;28;20211;-84
2021/01/28 09:11:52;;;;;;;22.80;21.40;;;;;;;;;;5076269;28;20200;-84
2021/01/28 09:14:32;;;;;;;23.00;21.50;;;;;;;;;;5057886;28;20203;-82
2021/01/28 09:17:03;;;;;;;24.30;22.70;;;;;;;;;;5075698;28;20320;-81
2021/01/28 09:19:31;;;;;;;24.75;23.10;;;;;;;;;;5075686;28;20238;-81
2021/01/28 09:22:00;;;;;;;24.17;22.52;;;;;;;;;;5075744;28;20188;-81
2021/01/28 09:24:35;;;;;;;22.48;20.92;;;;;;;;;;5076021;28;20622;-82
2021/01/28 09:27:16;;;;;;;23.10;21.70;;;;;;;;;;5075859;28;20217;-81
2021/01/28 09:29:43;;;;;;;23.67;22.08;;;;;;;;;;5075543;28;20188;-82
2021/01/28 09:32:12;;;;;;;24.10;22.35;;;;;;;;;;5075490;28;20199;-82
2021/01/28 09:34:39;;;;;;;25.95;23.85;;;;;;;;;;5075423;28;20184;-82
2021/01/28 09:37:07;;;;;;;24.00;22.40;;;;;;;;;;5075581;28;20743;-82
2021/01/28 09:39:37;;;;;;;38.20;34.45;;;;;;;;;;5074228;28;20189;-82
2021/01/28 09:42:22;;;;;;;25.35;23.65;;;;;;;;;;5075475;28;20260;-82
2021/01/28 09:44:50;;;;;;;27.50;25.50;;;;;;;;;;5075530;28;20203;-82
2021/01/28 09:47:24;;;;;;;25.10;23.40;;;;;;;;;;5075314;28;20209;-83
2021/01/28 09:49:52;;;;;;;23.73;22.13;;;;;;;;;;5074995;28;20213;-84
2021/01/28 09:52:24;;;;;;;27.45;25.52;;;;;;;;;;5075290;28;20645;-84
2021/01/28 09:54:51;;;;;;;27.77;25.83;;;;;;;;;;5075042;28;20262;-84
2021/01/28 09:57:19;;;;;;;25.17;23.58;;;;;;;;;;5075382;28;20213;-83
2021/01/28 09:59:46;;;;;;;24.60;22.80;;;;;;;;;;5075123;28;20650;-84
2021/01/28 10:02:15;;;;;;;23.50;22.00;;;;;;;;;;5057394;28;20200;-83
2021/01/28 10:04:44;;;;;;;23.80;22.20;;;;;;;;;;5075159;28;20190;-84
2021/01/28 10:07:10;;;;;;;24.90;23.10;;;;;;;;;;5074944;28;20249;-84
2021/01/28 10:09:37;;;;;;;24.05;22.35;;;;;;;;;;5075217;28;20201;-84
2021/01/28 10:12:05;;;;;;;24.00;22.40;;;;;;;;;;5075043;28;20634;-85
2021/01/28 10:14:32;;;;;;;24.65;22.95;;;;;;;;;;5075169;28;20627;-84
2021/01/28 10:16:58;;;;;;;24.63;22.92;;;;;;;;;;5075161;28;20226;-84
2021/01/28 10:19:25;;;;;;;23.33;21.83;;;;;;;;;;5075034;28;20208;-83
2021/01/28 10:21:53;;;;;;;23.40;21.83;;;;;;;;;;5074721;28;20524;-83
2021/01/28 10:24:20;;;;;;;24.60;22.80;;;;;;;;;;5074449;28;20654;-82
2021/01/28 10:26:47;;;;;;;23.45;21.92;;;;;;;;;;5074899;28;20193;-83
2021/01/28 10:29:14;;;;;;;25.73;23.92;;;;;;;;;;5074323;28;20203;-83
2021/01/28 10:31:41;;;;;;;23.80;22.38;;;;;;;;;;5074469;28;20205;-84
2021/01/28 10:34:08;;;;;;;26.52;24.75;;;;;;;;;;5056730;28;20233;-81
2021/01/28 10:36:35;;;;;;;24.80;23.00;;;;;;;;;;5074395;28;20245;-83
2021/01/28 10:39:03;;;;;;;24.05;22.35;;;;;;;;;;5074731;28;20195;-83
2021/01/28 10:41:30;;;;;;;26.10;24.27;;;;;;;;;;5073201;28;20574;-82
2021/01/28 10:43:57;;;;;;;26.40;24.60;;;;;;;;;;5074313;28;20286;-83
2021/01/28 10:46:24;;;;;;;24.95;23.25;;;;;;;;;;5074508;28;20193;-82
2021/01/28 10:48:51;;;;;;;27.58;25.45;;;;;;;;;;5074517;28;20203;-82
2021/01/28 10:51:18;;;;;;;28.17;26.17;;;;;;;;;;5074117;28;20651;-87
2021/01/28 10:53:45;;;;;;;28.42;26.33;;;;;;;;;;5073687;28;20193;-83
2021/01/28 10:56:13;;;;;;;26.48;24.70;;;;;;;;;;5074395;28;20246;-83
2021/01/28 10:58:40;;;;;;;26.45;24.60;;;;;;;;;;5073276;28;20239;-83
2021/01/28 11:01:07;;;;;;;29.33;26.77;;;;;;;;;;5073886;28;20192;-83
2021/01/28 11:03:36;;;;;;;28.65;26.48;;;;;;;;;;5056118;28;20559;-83
2021/01/28 11:06:03;;;;;;;29.95;27.48;;;;;;;;;;5073738;28;20564;-83
2021/01/28 11:08:30;;;;;;;30.70;27.77;;;;;;;;;;5073674;28;20245;-83
2021/01/28 11:10:57;;;;;;;31.13;28.02;;;;;;;;;;5073974;28;20200;-83
2021/01/28 11:13:25;;;;;;;31.05;28.05;;;;;;;;;;5073705;28;20196;-83
2021/01/28 11:15:52;;;;;;;27.35;25.25;;;;;;;;;;5073795;28;20207;-84
2021/01/28 11:18:19;;;;;;;29.40;26.88;;;;;;;;;;5073966;28;20240;-82
2021/01/28 11:20:46;;;;;;;30.92;27.95;;;;;;;;;;5074547;28;20188;-83
2021/01/28 11:23:13;;;;;;;29.77;27.23;;;;;;;;;;5073941;28;20214;-82
2021/01/28 11:25:40;;;;;;;29.88;27.30;;;;;;;;;;5073629;28;20192;-83
2021/01/28 11:28:07;;;;;;;27.65;25.45;;;;;;;;;;5073378;28;20203;-84
2021/01/28 11:30:35;;;;;;;30.05;27.38;;;;;;;;;;5055959;28;20201;-84
2021/01/28 11:33:03;;;;;;;147.75;99.13;;;;;;;;;;5073321;28;20242;-83
2021/01/28 11:35:31;;;;;;;71.82;65.13;;;;;;;;;;5073942;28;20663;-83
2021/01/28 11:37:58;;;;;;;38.58;34.90;;;;;;;;;;5073820;28;20225;-84
2021/01/28 11:40:26;;;;;;;146.32;129.02;;;;;;;;;;5073672;28;20185;-84
2021/01/28 11:42:53;;;;;;;35.90;32.75;;;;;;;;;;5073116;28;20206;-83
2021/01/28 11:45:21;;;;;;;53.10;48.30;;;;;;;;;;5055442;28;20646;-83
2021/01/28 11:47:48;;;;;;;37.20;34.40;;;;;;;;;;5073675;28;20286;-83
2021/01/28 11:50:17;;;;;;;35.00;32.13;;;;;;;;;;5073786;28;20275;-84
2021/01/28 11:52:44;;;;;;;35.20;32.13;;;;;;;;;;5073632;28;20185;-83
2021/01/28 11:55:13;;;;;;;34.30;31.45;;;;;;;;;;5073689;28;20200;-83
2021/01/28 11:57:40;;;;;;;34.80;31.70;;;;;;;;;;5073134;28;20220;-84
2021/01/28 12:00:08;;;;;;;33.90;31.25;;;;;;;;;;5073647;28;20189;-83
2021/01/28 12:02:35;;;;;;;32.40;29.73;;;;;;;;;;5075585;28;20605;-84
2021/01/28 12:05:02;;;;;;;33.20;30.55;;;;;;;;;;5077866;28;20197;-84
2021/01/28 12:07:30;;;;;;;32.90;29.98;;;;;;;;;;5077146;28;20225;-83
2021/01/28 12:09:57;;;;;;;34.88;32.03;;;;;;;;;;5077229;28;20189;-83
2021/01/28 12:12:23;;;;;;;33.88;31.08;;;;;;;;;;5077149;28;20193;-84
2021/01/28 12:14:50;;;;;;;38.38;34.92;;;;;;;;;;5077069;28;20196;-83
2021/01/28 12:17:18;;;;;;;33.20;30.48;;;;;;;;;;5076896;28;20603;-82
2021/01/28 12:19:45;;;;;;;33.10;30.45;;;;;;;;;;5076876;28;20243;-82
2021/01/28 12:22:13;;;;;;;33.35;30.55;;;;;;;;;;5077005;28;20198;-82
2021/01/28 12:24:40;;;;;;;35.63;32.97;;;;;;;;;;5075892;28;20187;-96
2021/01/28 12:27:06;;;;;;;38.88;35.70;;;;;;;;;;5080200;28;20188;-94
2021/01/28 12:29:34;;;;;;;34.88;32.22;;;;;;;;;;5077789;28;20569;-96
2021/01/28 12:32:01;;;;;;;33.30;30.75;;;;;;;;;;5076713;28;20204;-83
2021/01/28 12:34:27;;;;;;;44.03;40.05;;;;;;;;;;5076764;28;20233;-83
2021/01/28 12:36:54;;;;;;;34.40;31.35;;;;;;;;;;5076687;28;20245;-83
2021/01/28 12:39:22;;;;;;;29.67;27.55;;;;;;;;;;5076944;28;20196;-83
2021/01/28 12:41:49;;;;;;;39.53;36.22;;;;;;;;;;5076882;28;20196;-83
2021/01/28 12:44:16;;;;;;;36.92;33.63;;;;;;;;;;5076591;28;20199;-83
2021/01/28 12:46:43;;;;;;;30.83;28.63;;;;;;;;;;5076540;28;20200;-83
2021/01/28 12:49:10;;;;;;;27.70;25.50;;;;;;;;;;5076682;28;20204;-83
2021/01/28 12:51:37;;;;;;;38.90;35.00;;;;;;;;;;5076414;28;20208;-83
2021/01/28 12:54:04;;;;;;;33.33;30.85;;;;;;;;;;5076250;28;20199;-83
2021/01/28 12:56:32;;;;;;;32.50;30.20;;;;;;;;;;5076488;28;20208;-82
2021/01/28 12:58:58;;;;;;;32.35;29.75;;;;;;;;;;5076267;28;20215;-83
2021/01/28 13:01:25;;;;;;;35.55;31.92;;;;;;;;;;5076565;28;20196;-83
2021/01/28 13:03:52;;;;;;;36.38;32.97;;;;;;;;;;5076095;28;20208;-82
2021/01/28 13:06:20;;;;;;;31.60;29.20;;;;;;;;;;5076462;28;20193;-83
2021/01/28 13:08:46;;;;;;;31.73;29.00;;;;;;;;;;5075890;28;20643;-83
2021/01/28 13:11:14;;;;;;;30.85;28.50;;;;;;;;;;5076243;28;20206;-82
2021/01/28 13:13:42;;;;;;;29.55;27.67;;;;;;;;;;5075389;28;20231;-83
2021/01/28 13:16:09;;;;;;;29.90;27.90;;;;;;;;;;5075982;28;20665;-83
2021/01/28 13:18:36;;;;;;;27.48;25.58;;;;;;;;;;5075873;28;20590;-83
2021/01/28 13:21:03;;;;;;;27.90;26.10;;;;;;;;;;5075983;28;20195;-83
2021/01/28 13:23:30;;;;;;;25.13;23.42;;;;;;;;;;5075925;28;20530;-83
2021/01/28 13:25:57;;;;;;;25.75;24.08;;;;;;;;;;5076237;28;20197;-83
2021/01/28 13:28:24;;;;;;;26.95;25.35;;;;;;;;;;5075624;28;20650;-83
2021/01/28 13:30:52;;;;;;;24.15;22.65;;;;;;;;;;5075812;28;20219;-84
2021/01/28 13:33:19;;;;;;;24.65;23.15;;;;;;;;;;5075887;28;20228;-83
2021/01/28 13:35:46;;;;;;;26.15;24.55;;;;;;;;;;5075976;28;20184;-83
2021/01/28 13:38:14;;;;;;;23.08;21.77;;;;;;;;;;5075640;28;20224;-83
2021/01/28 13:40:42;;;;;;;24.50;22.90;;;;;;;;;;5074676;28;20188;-89
2021/01/28 13:43:09;;;;;;;25.95;24.35;;;;;;;;;;5076253;28;20227;-91
2021/01/28 13:45:35;;;;;;;24.17;22.77;;;;;;;;;;5076822;28;20260;-94
2021/01/28 13:48:04;;;;;;;24.75;23.15;;;;;;;;;;5077122;28;20207;-85
2021/01/28 13:50:32;;;;;;;25.98;24.48;;;;;;;;;;5076105;28;20207;-85
2021/01/28 13:52:59;;;;;;;24.67;23.17;;;;;;;;;;5075441;28;20222;-85
2021/01/28 13:55:26;;;;;;;25.38;23.77;;;;;;;;;;5075491;28;20709;-84
2021/01/28 13:57:54;;;;;;;24.77;23.27;;;;;;;;;;5075614;28;20219;-85
2021/01/28 14:00:22;;;;;;;23.85;22.25;;;;;;;;;;5075242;28;20212;-85
2021/01/28 14:02:49;;;;;;;23.48;22.17;;;;;;;;;;5057773;28;20208;-84
2021/01/28 14:05:18;;;;;;;23.05;21.75;;;;;;;;;;5075216;28;20230;-85
2021/01/28 14:07:46;;;;;;;23.83;22.33;;;;;;;;;;5075458;28;20250;-84
2021/01/28 14:10:15;;;;;;;25.80;24.17;;;;;;;;;;5075598;28;20193;-84
2021/01/28 14:12:42;;;;;;;23.42;22.02;;;;;;;;;;5057857;28;20246;-85
2021/01/28 14:15:10;;;;;;;25.50;23.73;;;;;;;;;;5075034;28;20226;-85
2021/01/28 14:17:37;;;;;;;24.80;23.40;;;;;;;;;;5057393;28;20314;-85
2021/01/28 14:20:05;;;;;;;25.60;24.00;;;;;;;;;;5074867;28;20271;-85
2021/01/28 14:22:35;;;;;;;23.73;22.33;;;;;;;;;;5074839;28;20634;-86
2021/01/28 14:25:02;;;;;;;23.58;22.08;;;;;;;;;;5074696;28;20239;-86
2021/01/28 14:27:28;;;;;;;23.25;21.95;;;;;;;;;;5074891;28;20196;-86